sensor_id;sensor_type;location;lat;lon;timestamp;temperature;humidity
15930;DHT22;8064;51.142;4.780;2024-02-23T00:02:18;6.50;99.90
15930;DHT22;8064;51.142;4.780;2024-02-23T00:04:43;6.60;99.90
15930;DHT22;8064;51.142;4.780;2024-02-23T00:07:10;6.60;99.90
15930;DHT22;8064;51.142;4.780;2024-02-23T00:09:37;6.60;99.90
15930;DHT22;8064;51.142;4.780;2024-02-23T00:12:03;6.60;99.90
15930;DHT22;8064;51.142;4.780;2024-02-23T00:14:30;6.60;99.90
15930;DHT22;8064;51.142;4.780;2024-02-23T00:16:56;6.60;99.90
15930;DHT22;8064;51.142;4.780;2024-02-23T00:19:23;6.60;99.90
15930;DHT22;8064;51.142;4.780;2024-02-23T00:21:49;6.60;99.90
15930;DHT22;8064;51.142;4.780;2024-02-23T00:24:16;6.60;99.90
15930;DHT22;8064;51.142;4.780;2024-02-23T00:26:43;6.60;99.90
15930;DHT22;8064;51.142;4.780;2024-02-23T00:29:09;6.70;99.90
15930;DHT22;8064;51.142;4.780;2024-02-23T00:31:37;6.70;99.90
15930;DHT22;8064;51.142;4.780;2024-02-23T00:34:03;6.70;99.90
15930;DHT22;8064;51.142;4.780;2024-02-23T00:36:29;6.70;99.90
15930;DHT22;8064;51.142;4.780;2024-02-23T00:38:55;6.70;99.90
15930;DHT22;8064;51.142;4.780;2024-02-23T00:41:20;6.70;99.90
15930;DHT22;8064;51.142;4.780;2024-02-23T00:43:46;6.70;99.90
15930;DHT22;8064;51.142;4.780;2024-02-23T00:46:13;6.70;99.90
15930;DHT22;8064;51.142;4.780;2024-02-23T00:48:40;6.70;99.90
15930;DHT22;8064;51.142;4.780;2024-02-23T00:51:05;6.70;99.90
15930;DHT22;8064;51.142;4.780;2024-02-23T00:53:32;6.70;99.90
15930;DHT22;8064;51.142;4.780;2024-02-23T00:55:58;6.70;99.90
15930;DHT22;8064;51.142;4.780;2024-02-23T00:58:24;6.70;99.90
15930;DHT22;8064;51.142;4.780;2024-02-23T01:00:50;6.70;99.90
15930;DHT22;8064;51.142;4.780;2024-02-23T01:03:15;6.70;99.90
15930;DHT22;8064;51.142;4.780;2024-02-23T01:05:41;6.70;99.90
15930;DHT22;8064;51.142;4.780;2024-02-23T01:08:08;6.70;99.90
15930;DHT22;8064;51.142;4.780;2024-02-23T01:10:34;6.70;99.90
15930;DHT22;8064;51.142;4.780;2024-02-23T01:13:00;6.70;99.90
15930;DHT22;8064;51.142;4.780;2024-02-23T01:15:25;6.70;99.90
15930;DHT22;8064;51.142;4.780;2024-02-23T01:17:51;6.70;99.90
15930;DHT22;8064;51.142;4.780;2024-02-23T01:20:17;6.60;99.90
15930;DHT22;8064;51.142;4.780;2024-02-23T01:22:43;6.60;99.90
15930;DHT22;8064;51.142;4.780;2024-02-23T01:25:09;6.60;99.90
15930;DHT22;8064;51.142;4.780;2024-02-23T01:27:34;6.60;99.90
15930;DHT22;8064;51.142;4.780;2024-02-23T01:30:00;6.60;99.90
15930;DHT22;8064;51.142;4.780;2024-02-23T01:32:26;6.50;99.90
15930;DHT22;8064;51.142;4.780;2024-02-23T01:34:52;6.50;99.90
15930;DHT22;8064;51.142;4.780;2024-02-23T01:37:17;6.50;99.90
15930;DHT22;8064;51.142;4.780;2024-02-23T01:39:43;6.50;99.90
15930;DHT22;8064;51.142;4.780;2024-02-23T01:42:10;6.50;99.90
15930;DHT22;8064;51.142;4.780;2024-02-23T01:44:36;6.50;99.90
15930;DHT22;8064;51.142;4.780;2024-02-23T01:47:01;6.50;99.90
15930;DHT22;8064;51.142;4.780;2024-02-23T01:49:28;6.40;99.90
15930;DHT22;8064;51.142;4.780;2024-02-23T01:51:58;6.40;99.90
15930;DHT22;8064;51.142;4.780;2024-02-23T01:54:24;6.40;99.90
15930;DHT22;8064;51.142;4.780;2024-02-23T01:56:51;6.30;99.90
15930;DHT22;8064;51.142;4.780;2024-02-23T01:59:17;6.30;99.90
15930;DHT22;8064;51.142;4.780;2024-02-23T02:01:44;6.30;99.90
15930;DHT22;8064;51.142;4.780;2024-02-23T02:04:10;6.30;99.90
15930;DHT22;8064;51.142;4.780;2024-02-23T02:06:36;6.30;99.90
15930;DHT22;8064;51.142;4.780;2024-02-23T02:09:02;6.30;99.90
15930;DHT22;8064;51.142;4.780;2024-02-23T02:11:27;6.30;99.90
15930;DHT22;8064;51.142;4.780;2024-02-23T02:13:53;6.30;99.90
15930;DHT22;8064;51.142;4.780;2024-02-23T02:16:19;6.30;99.90
15930;DHT22;8064;51.142;4.780;2024-02-23T02:18:45;6.30;99.90
15930;DHT22;8064;51.142;4.780;2024-02-23T02:21:11;6.30;99.90
15930;DHT22;8064;51.142;4.780;2024-02-23T02:23:37;6.30;99.90
15930;DHT22;8064;51.142;4.780;2024-02-23T02:26:03;6.30;99.90
15930;DHT22;8064;51.142;4.780;2024-02-23T02:28:29;6.30;99.90
15930;DHT22;8064;51.142;4.780;2024-02-23T02:30:55;6.30;99.90
15930;DHT22;8064;51.142;4.780;2024-02-23T02:33:22;6.30;99.90
15930;DHT22;8064;51.142;4.780;2024-02-23T02:35:48;6.30;99.90
15930;DHT22;8064;51.142;4.780;2024-02-23T02:38:15;6.30;99.90
15930;DHT22;8064;51.142;4.780;2024-02-23T02:40:41;6.30;99.90
15930;DHT22;8064;51.142;4.780;2024-02-23T02:43:07;6.30;99.90
15930;DHT22;8064;51.142;4.780;2024-02-23T02:45:33;6.30;99.90
15930;DHT22;8064;51.142;4.780;2024-02-23T02:48:01;6.30;99.90
15930;DHT22;8064;51.142;4.780;2024-02-23T02:50:27;6.30;99.90
15930;DHT22;8064;51.142;4.780;2024-02-23T02:52:53;6.30;99.90
15930;DHT22;8064;51.142;4.780;2024-02-23T02:55:19;6.30;99.90
15930;DHT22;8064;51.142;4.780;2024-02-23T02:57:45;6.30;99.90
15930;DHT22;8064;51.142;4.780;2024-02-23T03:00:12;6.30;99.90
15930;DHT22;8064;51.142;4.780;2024-02-23T03:02:38;6.30;99.90
15930;DHT22;8064;51.142;4.780;2024-02-23T03:05:04;6.30;99.90
15930;DHT22;8064;51.142;4.780;2024-02-23T03:07:30;6.40;99.90
15930;DHT22;8064;51.142;4.780;2024-02-23T03:09:56;6.30;99.90
15930;DHT22;8064;51.142;4.780;2024-02-23T03:12:22;6.40;99.90
15930;DHT22;8064;51.142;4.780;2024-02-23T03:14:48;6.40;99.90
15930;DHT22;8064;51.142;4.780;2024-02-23T03:17:13;6.40;99.90
15930;DHT22;8064;51.142;4.780;2024-02-23T03:19:39;6.40;99.90
15930;DHT22;8064;51.142;4.780;2024-02-23T03:22:05;6.40;99.90
15930;DHT22;8064;51.142;4.780;2024-02-23T03:24:31;6.40;99.90
15930;DHT22;8064;51.142;4.780;2024-02-23T03:26:56;6.40;99.90
15930;DHT22;8064;51.142;4.780;2024-02-23T03:29:22;6.40;99.90
15930;DHT22;8064;51.142;4.780;2024-02-23T03:31:50;6.40;99.90
15930;DHT22;8064;51.142;4.780;2024-02-23T03:34:16;6.40;99.90
15930;DHT22;8064;51.142;4.780;2024-02-23T03:36:43;6.40;99.90
15930;DHT22;8064;51.142;4.780;2024-02-23T03:39:08;6.40;99.90
15930;DHT22;8064;51.142;4.780;2024-02-23T03:41:34;6.40;99.90
15930;DHT22;8064;51.142;4.780;2024-02-23T03:44:00;6.40;99.90
15930;DHT22;8064;51.142;4.780;2024-02-23T03:46:26;6.40;99.90
15930;DHT22;8064;51.142;4.780;2024-02-23T03:48:51;6.40;99.90
15930;DHT22;8064;51.142;4.780;2024-02-23T03:51:18;6.50;99.90
15930;DHT22;8064;51.142;4.780;2024-02-23T03:53:43;6.40;99.90
15930;DHT22;8064;51.142;4.780;2024-02-23T03:56:09;6.40;99.90
15930;DHT22;8064;51.142;4.780;2024-02-23T03:58:35;6.40;99.90
15930;DHT22;8064;51.142;4.780;2024-02-23T04:01:01;6.50;99.90
15930;DHT22;8064;51.142;4.780;2024-02-23T04:03:26;6.50;99.90
15930;DHT22;8064;51.142;4.780;2024-02-23T04:05:52;6.50;99.90
15930;DHT22;8064;51.142;4.780;2024-02-23T04:08:18;6.50;99.90
15930;DHT22;8064;51.142;4.780;2024-02-23T04:10:43;6.40;99.90
15930;DHT22;8064;51.142;4.780;2024-02-23T04:13:09;6.50;99.90
15930;DHT22;8064;51.142;4.780;2024-02-23T04:15:39;6.50;99.90
15930;DHT22;8064;51.142;4.780;2024-02-23T04:18:05;6.60;99.90
15930;DHT22;8064;51.142;4.780;2024-02-23T04:20:31;6.60;99.90
15930;DHT22;8064;51.142;4.780;2024-02-23T04:22:58;6.60;99.90
15930;DHT22;8064;51.142;4.780;2024-02-23T04:25:24;6.60;99.90
15930;DHT22;8064;51.142;4.780;2024-02-23T04:27:50;6.60;99.90
15930;DHT22;8064;51.142;4.780;2024-02-23T04:30:16;6.70;99.90
15930;DHT22;8064;51.142;4.780;2024-02-23T04:32:41;6.70;99.90
15930;DHT22;8064;51.142;4.780;2024-02-23T04:35:08;6.70;99.90
15930;DHT22;8064;51.142;4.780;2024-02-23T04:37:34;6.70;99.90
15930;DHT22;8064;51.142;4.780;2024-02-23T04:39:59;6.70;99.90
15930;DHT22;8064;51.142;4.780;2024-02-23T04:42:25;6.70;99.90
15930;DHT22;8064;51.142;4.780;2024-02-23T04:44:51;6.80;99.90
15930;DHT22;8064;51.142;4.780;2024-02-23T04:47:19;6.80;99.90
15930;DHT22;8064;51.142;4.780;2024-02-23T04:49:45;6.70;99.90
15930;DHT22;8064;51.142;4.780;2024-02-23T04:52:11;6.80;99.90
15930;DHT22;8064;51.142;4.780;2024-02-23T04:54:37;6.80;99.90
15930;DHT22;8064;51.142;4.780;2024-02-23T04:57:02;6.80;99.90
15930;DHT22;8064;51.142;4.780;2024-02-23T04:59:28;6.80;99.90
15930;DHT22;8064;51.142;4.780;2024-02-23T05:01:55;6.80;99.90
15930;DHT22;8064;51.142;4.780;2024-02-23T05:04:21;6.90;99.90
15930;DHT22;8064;51.142;4.780;2024-02-23T05:06:47;6.80;99.90
15930;DHT22;8064;51.142;4.780;2024-02-23T05:09:13;6.90;99.90
15930;DHT22;8064;51.142;4.780;2024-02-23T05:11:39;6.90;99.90
15930;DHT22;8064;51.142;4.780;2024-02-23T05:14:04;6.80;99.90
15930;DHT22;8064;51.142;4.780;2024-02-23T05:16:31;6.90;99.90
15930;DHT22;8064;51.142;4.780;2024-02-23T05:18:57;6.90;99.90
15930;DHT22;8064;51.142;4.780;2024-02-23T05:21:23;6.90;99.90
15930;DHT22;8064;51.142;4.780;2024-02-23T05:23:49;6.90;99.90
15930;DHT22;8064;51.142;4.780;2024-02-23T05:26:15;6.90;99.90
15930;DHT22;8064;51.142;4.780;2024-02-23T05:28:41;6.90;99.90
15930;DHT22;8064;51.142;4.780;2024-02-23T05:31:07;6.90;99.90
15930;DHT22;8064;51.142;4.780;2024-02-23T05:33:34;6.90;99.90
15930;DHT22;8064;51.142;4.780;2024-02-23T05:36:00;6.90;99.90
15930;DHT22;8064;51.142;4.780;2024-02-23T05:38:26;6.90;99.90
15930;DHT22;8064;51.142;4.780;2024-02-23T05:40:51;6.90;99.90
15930;DHT22;8064;51.142;4.780;2024-02-23T05:43:17;6.90;99.90
15930;DHT22;8064;51.142;4.780;2024-02-23T05:45:43;6.90;99.90
15930;DHT22;8064;51.142;4.780;2024-02-23T05:48:10;6.90;99.90
15930;DHT22;8064;51.142;4.780;2024-02-23T05:50:37;6.90;99.90
15930;DHT22;8064;51.142;4.780;2024-02-23T05:53:03;6.90;99.90
15930;DHT22;8064;51.142;4.780;2024-02-23T05:55:30;6.90;99.90
15930;DHT22;8064;51.142;4.780;2024-02-23T05:57:56;6.90;99.90
15930;DHT22;8064;51.142;4.780;2024-02-23T06:00:22;6.90;99.90
15930;DHT22;8064;51.142;4.780;2024-02-23T06:02:48;6.90;99.90
15930;DHT22;8064;51.142;4.780;2024-02-23T06:05:14;6.90;99.90
15930;DHT22;8064;51.142;4.780;2024-02-23T06:07:40;7.00;99.90
15930;DHT22;8064;51.142;4.780;2024-02-23T06:10:06;6.90;99.90
15930;DHT22;8064;51.142;4.780;2024-02-23T06:12:32;6.90;99.90
15930;DHT22;8064;51.142;4.780;2024-02-23T06:14:58;7.00;99.90
15930;DHT22;8064;51.142;4.780;2024-02-23T06:17:24;6.90;99.90
15930;DHT22;8064;51.142;4.780;2024-02-23T06:19:50;6.90;99.90
15930;DHT22;8064;51.142;4.780;2024-02-23T06:22:18;6.90;99.90
15930;DHT22;8064;51.142;4.780;2024-02-23T06:24:47;6.90;99.90
15930;DHT22;8064;51.142;4.780;2024-02-23T06:27:12;6.90;99.90
15930;DHT22;8064;51.142;4.780;2024-02-23T06:29:38;6.90;99.90
15930;DHT22;8064;51.142;4.780;2024-02-23T06:32:04;6.90;99.90
15930;DHT22;8064;51.142;4.780;2024-02-23T06:34:30;6.90;99.90
15930;DHT22;8064;51.142;4.780;2024-02-23T06:36:56;6.90;99.90
15930;DHT22;8064;51.142;4.780;2024-02-23T06:39:24;6.90;99.90
15930;DHT22;8064;51.142;4.780;2024-02-23T06:41:50;6.90;99.90
15930;DHT22;8064;51.142;4.780;2024-02-23T06:44:16;7.00;99.90
15930;DHT22;8064;51.142;4.780;2024-02-23T06:46:42;7.00;99.90
15930;DHT22;8064;51.142;4.780;2024-02-23T06:49:07;7.00;99.90
15930;DHT22;8064;51.142;4.780;2024-02-23T06:51:33;6.90;99.90
15930;DHT22;8064;51.142;4.780;2024-02-23T06:53:59;7.00;99.90
15930;DHT22;8064;51.142;4.780;2024-02-23T06:56:25;7.00;99.90
15930;DHT22;8064;51.142;4.780;2024-02-23T06:58:51;7.00;99.90
15930;DHT22;8064;51.142;4.780;2024-02-23T07:01:16;7.00;99.90
15930;DHT22;8064;51.142;4.780;2024-02-23T07:03:42;7.00;99.90
15930;DHT22;8064;51.142;4.780;2024-02-23T07:06:09;7.10;99.90
15930;DHT22;8064;51.142;4.780;2024-02-23T07:08:36;7.10;99.90
15930;DHT22;8064;51.142;4.780;2024-02-23T07:11:02;7.10;99.90
15930;DHT22;8064;51.142;4.780;2024-02-23T07:13:28;7.10;99.90
15930;DHT22;8064;51.142;4.780;2024-02-23T07:15:54;7.10;99.90
15930;DHT22;8064;51.142;4.780;2024-02-23T07:18:21;7.20;99.90
15930;DHT22;8064;51.142;4.780;2024-02-23T07:20:47;7.20;99.90
15930;DHT22;8064;51.142;4.780;2024-02-23T07:23:13;7.20;99.90
15930;DHT22;8064;51.142;4.780;2024-02-23T07:25:41;7.20;99.90
15930;DHT22;8064;51.142;4.780;2024-02-23T07:28:07;7.20;99.90
15930;DHT22;8064;51.142;4.780;2024-02-23T07:30:33;7.30;99.90
15930;DHT22;8064;51.142;4.780;2024-02-23T07:33:00;7.30;99.90
15930;DHT22;8064;51.142;4.780;2024-02-23T07:35:26;7.40;99.90
15930;DHT22;8064;51.142;4.780;2024-02-23T07:38:16;7.40;99.90
15930;DHT22;8064;51.142;4.780;2024-02-23T07:40:45;7.40;99.90
15930;DHT22;8064;51.142;4.780;2024-02-23T07:43:11;7.40;99.90
15930;DHT22;8064;51.142;4.780;2024-02-23T07:45:37;7.40;99.90
15930;DHT22;8064;51.142;4.780;2024-02-23T07:48:04;7.40;99.90
15930;DHT22;8064;51.142;4.780;2024-02-23T07:50:30;7.40;99.90
15930;DHT22;8064;51.142;4.780;2024-02-23T07:52:55;7.40;99.90
15930;DHT22;8064;51.142;4.780;2024-02-23T07:55:21;7.40;99.90
15930;DHT22;8064;51.142;4.780;2024-02-23T07:57:48;7.40;99.90
15930;DHT22;8064;51.142;4.780;2024-02-23T08:00:14;7.40;99.90
15930;DHT22;8064;51.142;4.780;2024-02-23T08:02:40;7.50;99.90
15930;DHT22;8064;51.142;4.780;2024-02-23T08:05:07;7.50;99.90
15930;DHT22;8064;51.142;4.780;2024-02-23T08:07:32;7.50;99.90
15930;DHT22;8064;51.142;4.780;2024-02-23T08:09:58;7.50;99.90
15930;DHT22;8064;51.142;4.780;2024-02-23T08:12:24;7.50;99.90
15930;DHT22;8064;51.142;4.780;2024-02-23T08:14:50;7.60;99.90
15930;DHT22;8064;51.142;4.780;2024-02-23T08:17:18;7.60;99.90
15930;DHT22;8064;51.142;4.780;2024-02-23T08:19:45;7.70;99.90
15930;DHT22;8064;51.142;4.780;2024-02-23T08:22:11;7.70;99.90
15930;DHT22;8064;51.142;4.780;2024-02-23T08:24:37;7.70;99.90
15930;DHT22;8064;51.142;4.780;2024-02-23T08:27:03;7.70;99.90
15930;DHT22;8064;51.142;4.780;2024-02-23T08:29:28;7.70;99.90
15930;DHT22;8064;51.142;4.780;2024-02-23T08:31:55;7.80;99.90
15930;DHT22;8064;51.142;4.780;2024-02-23T08:34:22;7.80;99.90
15930;DHT22;8064;51.142;4.780;2024-02-23T08:36:50;7.80;99.90
15930;DHT22;8064;51.142;4.780;2024-02-23T08:39:16;7.80;99.90
15930;DHT22;8064;51.142;4.780;2024-02-23T08:41:42;7.80;99.90
15930;DHT22;8064;51.142;4.780;2024-02-23T08:44:07;7.80;99.90
15930;DHT22;8064;51.142;4.780;2024-02-23T08:46:33;7.80;99.90
15930;DHT22;8064;51.142;4.780;2024-02-23T08:49:00;7.80;99.90
15930;DHT22;8064;51.142;4.780;2024-02-23T08:51:27;7.80;99.90
15930;DHT22;8064;51.142;4.780;2024-02-23T08:53:57;7.80;99.90
15930;DHT22;8064;51.142;4.780;2024-02-23T08:56:30;7.70;99.90
15930;DHT22;8064;51.142;4.780;2024-02-23T08:58:58;7.70;99.90
15930;DHT22;8064;51.142;4.780;2024-02-23T09:01:23;7.70;99.90
15930;DHT22;8064;51.142;4.780;2024-02-23T09:03:49;7.70;99.90
15930;DHT22;8064;51.142;4.780;2024-02-23T09:06:15;7.70;99.90
15930;DHT22;8064;51.142;4.780;2024-02-23T09:08:41;7.60;99.90
15930;DHT22;8064;51.142;4.780;2024-02-23T09:11:06;7.60;99.90
15930;DHT22;8064;51.142;4.780;2024-02-23T09:13:34;7.60;99.90
15930;DHT22;8064;51.142;4.780;2024-02-23T09:16:00;7.70;99.90
15930;DHT22;8064;51.142;4.780;2024-02-23T09:18:26;7.70;99.90
15930;DHT22;8064;51.142;4.780;2024-02-23T09:20:51;7.70;99.90
15930;DHT22;8064;51.142;4.780;2024-02-23T09:23:17;7.70;99.90
15930;DHT22;8064;51.142;4.780;2024-02-23T09:25:43;7.70;99.90
15930;DHT22;8064;51.142;4.780;2024-02-23T09:28:09;7.70;99.90
15930;DHT22;8064;51.142;4.780;2024-02-23T09:30:36;7.80;99.90
15930;DHT22;8064;51.142;4.780;2024-02-23T09:33:03;7.80;99.90
15930;DHT22;8064;51.142;4.780;2024-02-23T09:35:29;7.80;99.90
15930;DHT22;8064;51.142;4.780;2024-02-23T09:37:55;7.80;99.90
15930;DHT22;8064;51.142;4.780;2024-02-23T09:40:20;7.80;99.90
15930;DHT22;8064;51.142;4.780;2024-02-23T09:42:55;7.80;99.90
15930;DHT22;8064;51.142;4.780;2024-02-23T09:45:28;7.90;99.90
15930;DHT22;8064;51.142;4.780;2024-02-23T09:47:56;7.90;99.90
15930;DHT22;8064;51.142;4.780;2024-02-23T09:50:24;8.00;99.90
15930;DHT22;8064;51.142;4.780;2024-02-23T09:52:50;8.20;99.90
15930;DHT22;8064;51.142;4.780;2024-02-23T09:55:17;8.40;99.90
15930;DHT22;8064;51.142;4.780;2024-02-23T09:57:45;8.50;99.90
15930;DHT22;8064;51.142;4.780;2024-02-23T10:00:15;8.50;99.90
15930;DHT22;8064;51.142;4.780;2024-02-23T10:02:43;8.50;99.90
15930;DHT22;8064;51.142;4.780;2024-02-23T10:05:10;8.50;99.90
15930;DHT22;8064;51.142;4.780;2024-02-23T10:07:36;8.50;99.90
15930;DHT22;8064;51.142;4.780;2024-02-23T10:10:02;8.50;99.90
15930;DHT22;8064;51.142;4.780;2024-02-23T10:12:29;8.50;99.90
15930;DHT22;8064;51.142;4.780;2024-02-23T10:14:55;8.50;99.90
15930;DHT22;8064;51.142;4.780;2024-02-23T10:17:20;8.60;99.90
15930;DHT22;8064;51.142;4.780;2024-02-23T10:19:46;8.60;99.90
15930;DHT22;8064;51.142;4.780;2024-02-23T10:22:13;8.60;99.90
15930;DHT22;8064;51.142;4.780;2024-02-23T10:24:38;8.60;99.90
15930;DHT22;8064;51.142;4.780;2024-02-23T10:27:04;8.70;99.90
15930;DHT22;8064;51.142;4.780;2024-02-23T10:29:30;8.70;99.90
15930;DHT22;8064;51.142;4.780;2024-02-23T10:31:57;8.80;99.90
15930;DHT22;8064;51.142;4.780;2024-02-23T10:34:24;9.20;99.90
15930;DHT22;8064;51.142;4.780;2024-02-23T10:36:53;9.40;99.90
15930;DHT22;8064;51.142;4.780;2024-02-23T10:39:19;9.40;99.90
15930;DHT22;8064;51.142;4.780;2024-02-23T10:41:56;9.40;99.90
15930;DHT22;8064;51.142;4.780;2024-02-23T10:44:24;9.60;99.90
15930;DHT22;8064;51.142;4.780;2024-02-23T10:46:53;9.80;99.90
15930;DHT22;8064;51.142;4.780;2024-02-23T10:49:21;10.00;99.90
15930;DHT22;8064;51.142;4.780;2024-02-23T10:51:51;10.00;99.90
15930;DHT22;8064;51.142;4.780;2024-02-23T10:54:19;10.00;99.90
15930;DHT22;8064;51.142;4.780;2024-02-23T10:56:48;10.10;99.90
15930;DHT22;8064;51.142;4.780;2024-02-23T10:59:14;10.50;99.90
15930;DHT22;8064;51.142;4.780;2024-02-23T11:01:46;10.40;99.90
15930;DHT22;8064;51.142;4.780;2024-02-23T11:04:13;10.60;99.90
15930;DHT22;8064;51.142;4.780;2024-02-23T11:06:40;10.80;99.90
15930;DHT22;8064;51.142;4.780;2024-02-23T11:09:07;11.10;99.90
15930;DHT22;8064;51.142;4.780;2024-02-23T11:11:34;11.10;99.90
15930;DHT22;8064;51.142;4.780;2024-02-23T11:14:07;10.90;99.90
15930;DHT22;8064;51.142;4.780;2024-02-23T11:16:38;10.60;99.90
15930;DHT22;8064;51.142;4.780;2024-02-23T11:19:08;10.30;99.90
15930;DHT22;8064;51.142;4.780;2024-02-23T11:21:37;10.10;99.90
15930;DHT22;8064;51.142;4.780;2024-02-23T11:24:04;10.00;99.90
15930;DHT22;8064;51.142;4.780;2024-02-23T11:26:30;9.90;99.90
15930;DHT22;8064;51.142;4.780;2024-02-23T11:28:59;10.00;99.90
15930;DHT22;8064;51.142;4.780;2024-02-23T11:31:29;10.30;99.90
15930;DHT22;8064;51.142;4.780;2024-02-23T11:33:56;10.60;99.90
15930;DHT22;8064;51.142;4.780;2024-02-23T11:36:23;10.80;99.90
15930;DHT22;8064;51.142;4.780;2024-02-23T11:38:53;10.90;99.90
15930;DHT22;8064;51.142;4.780;2024-02-23T11:41:21;10.90;99.90
15930;DHT22;8064;51.142;4.780;2024-02-23T11:43:47;11.70;99.90
15930;DHT22;8064;51.142;4.780;2024-02-23T11:46:15;13.40;99.90
15930;DHT22;8064;51.142;4.780;2024-02-23T11:48:42;15.00;99.90
15930;DHT22;8064;51.142;4.780;2024-02-23T11:51:09;15.00;99.90
15930;DHT22;8064;51.142;4.780;2024-02-23T11:53:36;15.40;99.90
15930;DHT22;8064;51.142;4.780;2024-02-23T11:56:05;15.00;99.90
15930;DHT22;8064;51.142;4.780;2024-02-23T11:58:32;14.10;99.90
15930;DHT22;8064;51.142;4.780;2024-02-23T12:01:02;13.40;99.90
15930;DHT22;8064;51.142;4.780;2024-02-23T12:03:29;13.00;99.90
15930;DHT22;8064;51.142;4.780;2024-02-23T12:05:59;12.50;99.90
15930;DHT22;8064;51.142;4.780;2024-02-23T12:08:26;12.10;99.90
15930;DHT22;8064;51.142;4.780;2024-02-23T12:10:54;11.80;99.90
15930;DHT22;8064;51.142;4.780;2024-02-23T12:13:20;11.50;99.90
15930;DHT22;8064;51.142;4.780;2024-02-23T12:15:47;11.20;99.90
15930;DHT22;8064;51.142;4.780;2024-02-23T12:18:14;10.90;99.90
15930;DHT22;8064;51.142;4.780;2024-02-23T12:20:41;10.70;99.90
15930;DHT22;8064;51.142;4.780;2024-02-23T12:23:07;10.60;99.90
15930;DHT22;8064;51.142;4.780;2024-02-23T12:25:33;10.50;99.90
15930;DHT22;8064;51.142;4.780;2024-02-23T12:27:59;10.40;99.90
15930;DHT22;8064;51.142;4.780;2024-02-23T12:30:26;10.30;99.90
15930;DHT22;8064;51.142;4.780;2024-02-23T12:33:08;10.20;99.90
15930;DHT22;8064;51.142;4.780;2024-02-23T12:35:34;10.20;99.90
15930;DHT22;8064;51.142;4.780;2024-02-23T12:38:06;10.10;99.90
15930;DHT22;8064;51.142;4.780;2024-02-23T12:40:31;10.00;99.90
15930;DHT22;8064;51.142;4.780;2024-02-23T12:42:57;10.00;99.90
15930;DHT22;8064;51.142;4.780;2024-02-23T12:45:23;9.90;99.90
15930;DHT22;8064;51.142;4.780;2024-02-23T12:47:48;9.90;99.90
15930;DHT22;8064;51.142;4.780;2024-02-23T12:50:14;9.80;99.90
15930;DHT22;8064;51.142;4.780;2024-02-23T12:52:40;9.80;99.90
15930;DHT22;8064;51.142;4.780;2024-02-23T12:55:07;9.80;99.90
15930;DHT22;8064;51.142;4.780;2024-02-23T12:57:33;9.70;99.90
15930;DHT22;8064;51.142;4.780;2024-02-23T12:59:59;9.70;99.90
15930;DHT22;8064;51.142;4.780;2024-02-23T13:02:25;9.70;99.90
15930;DHT22;8064;51.142;4.780;2024-02-23T13:04:50;9.70;99.90
15930;DHT22;8064;51.142;4.780;2024-02-23T13:07:16;9.80;99.90
15930;DHT22;8064;51.142;4.780;2024-02-23T13:09:44;9.80;99.90
15930;DHT22;8064;51.142;4.780;2024-02-23T13:12:10;9.80;99.90
15930;DHT22;8064;51.142;4.780;2024-02-23T13:14:36;9.90;99.90
15930;DHT22;8064;51.142;4.780;2024-02-23T13:17:02;10.00;99.90
15930;DHT22;8064;51.142;4.780;2024-02-23T13:19:29;10.00;99.90
15930;DHT22;8064;51.142;4.780;2024-02-23T13:21:54;10.10;99.90
15930;DHT22;8064;51.142;4.780;2024-02-23T13:24:20;10.10;99.90
15930;DHT22;8064;51.142;4.780;2024-02-23T13:26:46;10.20;99.90
15930;DHT22;8064;51.142;4.780;2024-02-23T13:29:12;10.30;99.90
15930;DHT22;8064;51.142;4.780;2024-02-23T13:31:37;10.50;99.90
15930;DHT22;8064;51.142;4.780;2024-02-23T13:34:05;10.60;99.90
15930;DHT22;8064;51.142;4.780;2024-02-23T13:36:31;10.60;99.90
15930;DHT22;8064;51.142;4.780;2024-02-23T13:38:56;10.70;99.90
15930;DHT22;8064;51.142;4.780;2024-02-23T13:41:22;10.70;99.90
15930;DHT22;8064;51.142;4.780;2024-02-23T13:43:49;10.80;99.90
15930;DHT22;8064;51.142;4.780;2024-02-23T13:46:15;10.90;99.90
15930;DHT22;8064;51.142;4.780;2024-02-23T13:48:40;10.80;99.90
15930;DHT22;8064;51.142;4.780;2024-02-23T13:51:06;10.90;99.90
15930;DHT22;8064;51.142;4.780;2024-02-23T13:53:32;10.80;99.90
15930;DHT22;8064;51.142;4.780;2024-02-23T13:55:58;10.80;99.90
15930;DHT22;8064;51.142;4.780;2024-02-23T13:58:27;10.80;99.90
15930;DHT22;8064;51.142;4.780;2024-02-23T14:00:54;10.80;99.90
15930;DHT22;8064;51.142;4.780;2024-02-23T14:03:21;10.80;99.90
15930;DHT22;8064;51.142;4.780;2024-02-23T14:05:48;10.70;99.90
15930;DHT22;8064;51.142;4.780;2024-02-23T14:08:14;10.70;99.90
15930;DHT22;8064;51.142;4.780;2024-02-23T14:10:40;10.60;99.90
15930;DHT22;8064;51.142;4.780;2024-02-23T14:13:06;10.60;99.90
15930;DHT22;8064;51.142;4.780;2024-02-23T14:15:32;10.70;99.90
15930;DHT22;8064;51.142;4.780;2024-02-23T14:17:58;10.70;99.90
15930;DHT22;8064;51.142;4.780;2024-02-23T14:20:24;10.80;99.90
15930;DHT22;8064;51.142;4.780;2024-02-23T14:22:49;10.80;99.90
15930;DHT22;8064;51.142;4.780;2024-02-23T14:25:16;10.80;99.90
15930;DHT22;8064;51.142;4.780;2024-02-23T14:27:41;10.80;99.90
15930;DHT22;8064;51.142;4.780;2024-02-23T14:30:08;10.70;99.90
15930;DHT22;8064;51.142;4.780;2024-02-23T14:32:34;10.60;99.90
15930;DHT22;8064;51.142;4.780;2024-02-23T14:35:02;10.60;99.90
15930;DHT22;8064;51.142;4.780;2024-02-23T14:37:29;10.50;99.90
15930;DHT22;8064;51.142;4.780;2024-02-23T14:39:55;10.60;99.90
15930;DHT22;8064;51.142;4.780;2024-02-23T14:42:21;10.60;99.90
15930;DHT22;8064;51.142;4.780;2024-02-23T14:44:46;10.70;99.90
15930;DHT22;8064;51.142;4.780;2024-02-23T14:47:12;10.70;99.90
15930;DHT22;8064;51.142;4.780;2024-02-23T14:49:38;10.80;99.90
15930;DHT22;8064;51.142;4.780;2024-02-23T14:52:04;10.80;99.90
15930;DHT22;8064;51.142;4.780;2024-02-23T14:54:30;10.80;99.90
15930;DHT22;8064;51.142;4.780;2024-02-23T14:56:56;10.70;99.90
15930;DHT22;8064;51.142;4.780;2024-02-23T14:59:22;10.70;99.90
15930;DHT22;8064;51.142;4.780;2024-02-23T15:01:48;10.60;99.90
15930;DHT22;8064;51.142;4.780;2024-02-23T15:04:13;10.60;99.90
15930;DHT22;8064;51.142;4.780;2024-02-23T15:06:39;10.60;99.90
15930;DHT22;8064;51.142;4.780;2024-02-23T15:09:05;10.60;99.90
15930;DHT22;8064;51.142;4.780;2024-02-23T15:11:31;10.60;99.90
15930;DHT22;8064;51.142;4.780;2024-02-23T15:13:57;10.60;99.90
15930;DHT22;8064;51.142;4.780;2024-02-23T15:16:25;10.80;99.90
15930;DHT22;8064;51.142;4.780;2024-02-23T15:18:51;10.80;99.90
15930;DHT22;8064;51.142;4.780;2024-02-23T15:21:17;10.80;99.90
15930;DHT22;8064;51.142;4.780;2024-02-23T15:23:43;10.70;99.90
15930;DHT22;8064;51.142;4.780;2024-02-23T15:26:10;10.70;99.90
15930;DHT22;8064;51.142;4.780;2024-02-23T15:28:37;10.60;99.90
15930;DHT22;8064;51.142;4.780;2024-02-23T15:31:03;10.60;99.90
15930;DHT22;8064;51.142;4.780;2024-02-23T15:33:29;10.50;99.90
15930;DHT22;8064;51.142;4.780;2024-02-23T15:35:55;10.50;99.90
15930;DHT22;8064;51.142;4.780;2024-02-23T15:38:20;10.50;99.90
15930;DHT22;8064;51.142;4.780;2024-02-23T15:40:46;10.50;99.90
15930;DHT22;8064;51.142;4.780;2024-02-23T15:43:14;10.50;99.90
15930;DHT22;8064;51.142;4.780;2024-02-23T15:45:39;10.50;99.90
15930;DHT22;8064;51.142;4.780;2024-02-23T15:48:06;10.40;99.90
15930;DHT22;8064;51.142;4.780;2024-02-23T15:50:31;10.40;99.90
15930;DHT22;8064;51.142;4.780;2024-02-23T15:52:58;10.40;99.90